createdAt,value
2018-06-16T00:01:03.571Z,96413.69
2018-06-16T00:03:32.097Z,96415.20
2018-06-16T00:06:01.102Z,96415.45
2018-06-16T00:08:29.711Z,96417.78
2018-06-16T00:10:58.272Z,96419.84
2018-06-16T00:13:26.798Z,96418.84
2018-06-16T00:15:55.461Z,96418.11
2018-06-16T00:18:23.995Z,96414.56
2018-06-16T00:20:52.561Z,96412.33
2018-06-16T00:23:21.163Z,96405.37
2018-06-16T00:25:49.834Z,96400.30
2018-06-16T00:28:18.460Z,96400.82
2018-06-16T00:30:47.066Z,96395.50
2018-06-16T00:33:15.616Z,96404.56
2018-06-16T00:35:44.157Z,96397.74
2018-06-16T00:38:12.750Z,96397.39
2018-06-16T00:40:41.382Z,96391.41
2018-06-16T00:43:09.947Z,96396.37
2018-06-16T00:45:38.473Z,96393.78
2018-06-16T00:48:07.246Z,96394.58
2018-06-16T00:50:35.885Z,96391.19
2018-06-16T00:53:04.441Z,96387.55
2018-06-16T00:55:32.992Z,96390.67
2018-06-16T00:58:01.558Z,96391.38
2018-06-16T01:00:30.165Z,96390.78
2018-06-16T01:02:58.766Z,96391.30
2018-06-16T01:05:27.332Z,96382.42
2018-06-16T01:07:55.858Z,96389.31
2018-06-16T01:10:24.386Z,96392.73
2018-06-16T01:12:52.915Z,96395.19
2018-06-16T01:15:21.443Z,96393.92
2018-06-16T01:17:50.038Z,96385.77
2018-06-16T01:20:18.608Z,96383.63
2018-06-16T01:22:47.270Z,96379.05
2018-06-16T01:25:15.871Z,96376.15
2018-06-16T01:27:44.407Z,96383.95
2018-06-16T01:30:12.989Z,96388.27
2018-06-16T01:32:41.558Z,96380.35
2018-06-16T01:35:10.128Z,96383.14
2018-06-16T01:37:38.706Z,96378.86
2018-06-16T01:40:07.250Z,96384.66
2018-06-16T01:42:35.762Z,96383.09
2018-06-16T01:45:04.453Z,96380.04
2018-06-16T01:47:33.011Z,96384.44
2018-06-16T01:50:01.557Z,96376.52
2018-06-16T01:52:30.134Z,96383.70
2018-06-16T01:54:58.721Z,96385.68
2018-06-16T01:57:27.322Z,96378.86
2018-06-16T01:59:55.865Z,96371.09
2018-06-16T02:02:24.400Z,96371.54
2018-06-16T02:04:52.945Z,96361.48
2018-06-16T02:07:21.534Z,96359.42
2018-06-16T02:09:50.078Z,96365.07
2018-06-16T02:12:18.624Z,96375.31
2018-06-16T02:14:47.134Z,96373.33
2018-06-16T02:17:15.701Z,96362.02
2018-06-16T02:19:44.273Z,96361.55
2018-06-16T02:22:12.794Z,96356.28
2018-06-16T02:24:41.438Z,96355.80
2018-06-16T02:27:09.993Z,96356.06
2018-06-16T02:29:38.577Z,96353.98
2018-06-16T02:32:07.254Z,96358.72
2018-06-16T02:34:35.798Z,96357.38
2018-06-16T02:37:04.435Z,96351.47
2018-06-16T02:39:33.118Z,96346.66
2018-06-16T02:42:01.667Z,96346.98
2018-06-16T02:44:30.252Z,96346.02
2018-06-16T02:46:58.830Z,96344.61
2018-06-16T02:49:27.359Z,96345.28
2018-06-16T02:51:55.939Z,96344.17
2018-06-16T02:54:24.544Z,96346.76
2018-06-16T02:56:53.244Z,96337.70
2018-06-16T02:59:21.774Z,96336.52
2018-06-16T03:01:50.331Z,96337.47
2018-06-16T03:04:18.902Z,96335.87
2018-06-16T03:06:47.470Z,96336.88
2018-06-16T03:09:16.110Z,96328.67
2018-06-16T03:11:44.738Z,96332.59
2018-06-16T03:14:13.310Z,96334.05
2018-06-16T03:16:41.881Z,96335.70
2018-06-16T03:19:10.480Z,96333.92
2018-06-16T03:21:39.048Z,96337.38
2018-06-16T03:24:07.606Z,96336.65
2018-06-16T03:26:36.154Z,96342.32
2018-06-16T03:29:04.702Z,96353.66
2018-06-16T03:31:33.291Z,96361.17
2018-06-16T03:34:01.854Z,96366.39
2018-06-16T03:36:30.397Z,96375.91
2018-06-16T03:38:58.980Z,96391.05
2018-06-16T03:41:27.514Z,96411.41
2018-06-16T03:43:56.120Z,96427.68
2018-06-16T03:46:24.669Z,96447.65
2018-06-16T03:48:53.234Z,96465.89
2018-06-16T03:51:21.818Z,96481.73
2018-06-16T03:53:50.374Z,96500.14
2018-06-16T03:56:18.966Z,96536.12
2018-06-16T03:58:47.503Z,96561.23
2018-06-16T04:01:16.141Z,96567.98
2018-06-16T04:03:44.657Z,96581.61
2018-06-16T04:06:13.177Z,96628.40
2018-06-16T04:08:41.761Z,96648.03
2018-06-16T04:11:10.291Z,96660.00
2018-06-16T04:13:38.825Z,96690.94
2018-06-16T04:16:07.374Z,96704.19
2018-06-16T04:18:35.920Z,96736.80
2018-06-16T04:21:04.544Z,96752.61
2018-06-16T04:23:33.101Z,96773.56
2018-06-16T04:26:01.646Z,96801.64
2018-06-16T04:28:30.169Z,96823.54
2018-06-16T04:30:59.018Z,96854.33
2018-06-16T04:33:27.598Z,96860.52
2018-06-16T04:35:56.249Z,96903.77
2018-06-16T04:38:24.873Z,96951.90
2018-06-16T04:40:55.162Z,96963.91
2018-06-16T04:43:23.709Z,96980.53
2018-06-16T04:45:52.459Z,96517.59
2018-06-16T04:48:21.066Z,97053.02
2018-06-16T04:50:49.757Z,97085.39
2018-06-16T04:53:18.416Z,97148.80
2018-06-16T04:55:47.765Z,97202.91
2018-06-16T04:58:16.609Z,97228.20
2018-06-16T05:00:45.494Z,97296.78
2018-06-16T05:03:14.252Z,97311.64
2018-06-16T05:05:42.965Z,97326.02
2018-06-16T05:08:11.580Z,97343.16
2018-06-16T05:10:40.221Z,97359.73
2018-06-16T05:13:09.269Z,97351.46
2018-06-16T05:15:38.039Z,97378.20
2018-06-16T05:18:06.858Z,97391.68
2018-06-16T05:20:35.563Z,97385.75
2018-06-16T05:23:04.273Z,97392.66
2018-06-16T05:25:32.874Z,97398.30
2018-06-16T05:28:01.510Z,97387.22
2018-06-16T05:30:30.328Z,97400.70
2018-06-16T05:32:59.153Z,97408.00
2018-06-16T05:36:30.790Z,97408.22
2018-06-16T05:38:59.502Z,97421.62
2018-06-16T05:41:28.149Z,97422.81
2018-06-16T05:43:56.913Z,97422.41
2018-06-16T05:46:25.864Z,97421.89
2018-06-16T05:48:55.582Z,97414.44
2018-06-16T05:51:24.576Z,97404.86
2018-06-16T05:53:53.448Z,97409.61
2018-06-16T05:56:22.080Z,97413.58
2018-06-16T05:58:50.740Z,97391.39
2018-06-16T06:01:19.398Z,97413.98
2018-06-16T06:03:48.157Z,97400.46
2018-06-16T06:06:16.808Z,97427.54
2018-06-16T06:08:45.405Z,97435.68
2018-06-16T06:11:13.952Z,97440.53
2018-06-16T06:13:42.561Z,97439.13
2018-06-16T06:16:11.192Z,97440.13
2018-06-16T06:18:40.049Z,97443.17
2018-06-16T06:21:08.911Z,97448.84
2018-06-16T06:23:37.591Z,97451.83
2018-06-16T06:26:06.326Z,97455.31
2018-06-16T06:28:35.010Z,97456.59
2018-06-16T06:31:03.694Z,97460.79
2018-06-16T06:33:32.506Z,97459.94
2018-06-16T06:36:01.254Z,97459.14
2018-06-16T06:38:30.074Z,97464.09
2018-06-16T06:40:58.831Z,97463.13
2018-06-16T06:43:27.725Z,97465.21
2018-06-16T06:45:56.333Z,97470.09
2018-06-16T06:48:25.085Z,97463.22
2018-06-16T06:50:53.884Z,97464.72
2018-06-16T06:53:22.522Z,97456.77
2018-06-16T06:55:51.206Z,97454.77
2018-06-16T06:58:19.993Z,97465.03
2018-06-16T07:00:48.976Z,97453.33
2018-06-16T07:03:17.578Z,97449.36
2018-06-16T07:05:46.290Z,97450.14
2018-06-16T07:08:15.255Z,97455.33
2018-06-16T07:10:43.892Z,97446.19
2018-06-16T07:13:12.634Z,97451.08
2018-06-16T07:15:41.353Z,97458.37
2018-06-16T07:18:10.128Z,97456.37
2018-06-16T07:20:38.869Z,97463.86
2018-06-16T07:23:07.722Z,97458.70
2018-06-16T07:25:36.407Z,97466.73
2018-06-16T07:28:05.100Z,97455.38
2018-06-16T07:30:34.349Z,97451.70
2018-06-16T07:33:03.070Z,97461.34
2018-06-16T07:35:31.808Z,97462.69
2018-06-16T07:38:00.481Z,97458.48
2018-06-16T07:40:29.177Z,97462.61
2018-06-16T07:42:57.949Z,97456.66
2018-06-16T07:45:26.787Z,97451.54
2018-06-16T07:47:55.499Z,97458.47
2018-06-16T07:50:24.283Z,97452.95
2018-06-16T07:52:53.045Z,97448.64
2018-06-16T07:55:21.677Z,97452.76
2018-06-16T07:57:50.325Z,97451.80
2018-06-16T08:00:19.075Z,97455.22
2018-06-16T08:02:47.930Z,97458.39
2018-06-16T08:05:16.737Z,97444.62
2018-06-16T08:07:46.120Z,97449.38
2018-06-16T08:10:14.963Z,97459.05
2018-06-16T08:12:43.780Z,97451.30
2018-06-16T08:15:12.554Z,97458.50
2018-06-16T08:17:41.468Z,97457.67
2018-06-16T08:20:10.414Z,97454.20
2018-06-16T08:22:39.233Z,97450.67
2018-06-16T08:25:08.105Z,97446.93
2018-06-16T08:27:36.880Z,97450.47
2018-06-16T08:30:05.463Z,97443.78
2018-06-16T08:32:34.017Z,97436.71
2018-06-16T08:35:02.548Z,97436.20
2018-06-16T08:37:31.069Z,97443.69
2018-06-16T08:39:59.540Z,97432.20
2018-06-16T08:42:28.212Z,97436.48
2018-06-16T08:44:56.761Z,97439.51
2018-06-16T08:47:25.408Z,97444.64
2018-06-16T08:49:53.991Z,97437.81
2018-06-16T08:52:22.548Z,97438.16
2018-06-16T08:54:51.163Z,97436.70
2018-06-16T08:57:19.760Z,97442.52
2018-06-16T08:59:48.273Z,97448.14
2018-06-16T09:02:16.773Z,97446.45
2018-06-16T09:04:45.353Z,97440.49
2018-06-16T09:07:13.863Z,97445.65
2018-06-16T09:09:42.513Z,97451.14
2018-06-16T09:12:11.153Z,97449.22
2018-06-16T09:14:39.693Z,97455.27
2018-06-16T09:17:08.240Z,97445.56
2018-06-16T09:19:36.787Z,97447.32
2018-06-16T09:22:05.320Z,97446.66
2018-06-16T09:24:33.817Z,97449.56
2018-06-16T09:27:02.398Z,97452.83
2018-06-16T09:29:30.960Z,97449.45
2018-06-16T09:31:59.496Z,97450.76
2018-06-16T09:34:28.103Z,97457.17
2018-06-16T09:36:56.670Z,97449.92
2018-06-16T09:39:25.188Z,97451.58
2018-06-16T09:41:54.382Z,97439.44
2018-06-16T09:44:23.978Z,97441.41
2018-06-16T09:46:52.528Z,97444.37
2018-06-16T09:49:21.093Z,97451.23
2018-06-16T09:51:49.895Z,97449.73
2018-06-16T09:54:18.558Z,97448.72
2018-06-16T09:56:47.139Z,97445.70
2018-06-16T09:59:15.656Z,97453.41
2018-06-16T10:01:44.194Z,97452.60
2018-06-16T10:04:12.779Z,97452.51
2018-06-16T10:06:41.309Z,97454.73
2018-06-16T10:09:10.529Z,97443.88
2018-06-16T10:11:39.179Z,97436.34
2018-06-16T10:14:07.770Z,97443.88
2018-06-16T10:16:36.275Z,97438.80
2018-06-16T10:19:04.806Z,97444.44
2018-06-16T10:21:33.333Z,97442.79
2018-06-16T10:24:01.844Z,97433.72
2018-06-16T10:26:30.401Z,97429.28
2018-06-16T10:28:59.009Z,97429.20
2018-06-16T10:31:27.512Z,97433.97
2018-06-16T10:33:56.051Z,97425.83
2018-06-16T10:36:24.595Z,97428.28
2018-06-16T10:38:53.102Z,97427.47
2018-06-16T10:41:21.626Z,97424.59
2018-06-16T10:43:50.167Z,97425.52
2018-06-16T10:46:18.676Z,97421.59
2018-06-16T10:48:47.240Z,97423.41
2018-06-16T10:51:15.768Z,97419.01
2018-06-16T10:53:44.376Z,97421.25
2018-06-16T10:56:12.957Z,97423.11
2018-06-16T10:58:41.507Z,97414.34
2018-06-16T11:01:10.088Z,97420.33
2018-06-16T11:03:38.636Z,97416.83
2018-06-16T11:06:07.146Z,97412.08
2018-06-16T11:08:35.632Z,97404.57
2018-06-16T11:11:04.203Z,97399.07
2018-06-16T11:13:32.724Z,97407.77
2018-06-16T11:16:01.238Z,97393.13
2018-06-16T11:18:29.781Z,97389.63
2018-06-16T11:20:58.335Z,97391.11
2018-06-16T11:23:26.986Z,97392.23
2018-06-16T11:25:55.520Z,97383.46
2018-06-16T11:28:24.040Z,97391.94
2018-06-16T11:30:52.588Z,97383.33
2018-06-16T11:33:21.173Z,97374.20
2018-06-16T11:35:49.697Z,97371.81
2018-06-16T11:38:18.383Z,97373.84
2018-06-16T11:40:47.292Z,97369.92
2018-06-16T11:43:16.339Z,97365.05
2018-06-16T11:45:44.854Z,97359.33
2018-06-16T11:48:13.514Z,97372.56
2018-06-16T11:50:42.086Z,97361.44
2018-06-16T11:53:10.593Z,97363.97
2018-06-16T11:55:39.130Z,97359.39
2018-06-16T11:58:07.638Z,97347.00
2018-06-16T12:00:36.144Z,97331.31
2018-06-16T12:03:04.738Z,97349.39
2018-06-16T12:05:33.274Z,97348.34
2018-06-16T12:08:01.850Z,97343.31
2018-06-16T12:10:30.398Z,97347.81
2018-06-16T12:12:58.980Z,97331.73
2018-06-16T12:15:27.615Z,97337.16
2018-06-16T12:17:56.155Z,97342.09
2018-06-16T12:20:24.674Z,97331.55
2018-06-16T12:22:53.237Z,97334.98
2018-06-16T12:25:21.897Z,97329.48
2018-06-16T12:27:50.532Z,97331.92
2018-06-16T12:30:19.045Z,97331.80
2018-06-16T12:32:47.589Z,97335.63
2018-06-16T12:35:16.111Z,97336.83
2018-06-16T12:37:44.621Z,97331.03
2018-06-16T12:40:13.162Z,97337.33
2018-06-16T12:42:41.803Z,97322.32
2018-06-16T12:45:10.411Z,97330.31
2018-06-16T12:47:38.997Z,97326.69
2018-06-16T12:50:07.765Z,97325.67
2018-06-16T12:52:36.289Z,97331.67
2018-06-16T12:55:04.817Z,97320.92
2018-06-16T12:57:33.457Z,97319.06
2018-06-16T13:00:01.974Z,97317.88
2018-06-16T13:02:30.520Z,97324.77
2018-06-16T13:04:59.061Z,97326.73
2018-06-16T13:07:27.658Z,97323.13
2018-06-16T13:09:56.217Z,97309.93
2018-06-16T13:12:24.781Z,97304.02
2018-06-16T13:14:53.332Z,97313.39
2018-06-16T13:17:21.884Z,97304.98
2018-06-16T13:19:50.565Z,97311.74
2018-06-16T13:22:19.085Z,97298.52
2018-06-16T13:24:47.648Z,97310.80
2018-06-16T13:27:16.170Z,97298.20
2018-06-16T13:29:44.714Z,97300.84
2018-06-16T13:32:13.331Z,97297.73
2018-06-16T13:34:42.173Z,97297.42
2018-06-16T13:37:10.683Z,97298.86
2018-06-16T13:39:39.247Z,97296.65
2018-06-16T13:42:07.867Z,97286.10
2018-06-16T13:44:36.385Z,97290.05
2018-06-16T13:47:05.272Z,97294.40
2018-06-16T13:49:33.813Z,97299.66
2018-06-16T13:52:02.516Z,97290.05
2018-06-16T13:54:31.079Z,97294.16
2018-06-16T13:56:59.821Z,97291.12
2018-06-16T13:59:28.447Z,97262.34
2018-06-16T14:01:56.964Z,97279.77
2018-06-16T14:04:25.515Z,97276.62
2018-06-16T14:06:54.283Z,97285.08
2018-06-16T14:09:22.857Z,97274.83
2018-06-16T14:11:51.375Z,97291.11
2018-06-16T14:14:20.026Z,97276.77
2018-06-16T14:16:48.601Z,97283.43
2018-06-16T14:19:17.127Z,97288.18
2018-06-16T14:21:45.703Z,97281.17
2018-06-16T14:24:14.265Z,97276.75
2018-06-16T14:26:42.787Z,97271.20
2018-06-16T14:29:11.304Z,97282.07
2018-06-16T14:31:39.894Z,97282.80
2018-06-16T14:34:08.439Z,97273.60
2018-06-16T14:36:37.025Z,97271.67
2018-06-16T14:39:07.398Z,97272.80
2018-06-16T14:41:35.932Z,97265.52
2018-06-16T14:44:04.470Z,97268.50
2018-06-16T14:46:33.013Z,97270.36
2018-06-16T14:49:01.538Z,97274.02
2018-06-16T14:51:30.176Z,97271.17
2018-06-16T14:53:58.760Z,97273.84
2018-06-16T14:56:27.397Z,97263.20
2018-06-16T14:58:55.893Z,97267.00
2018-06-16T15:01:24.476Z,97267.77
2018-06-16T15:03:53.014Z,97263.37
2018-06-16T15:06:21.629Z,97262.07
2018-06-16T15:08:50.257Z,97262.57
2018-06-16T15:11:18.858Z,97259.31
2018-06-16T15:13:47.373Z,97248.13
2018-06-16T15:16:15.908Z,97250.61
2018-06-16T15:18:44.418Z,97248.83
2018-06-16T15:21:13.126Z,97246.79
2018-06-16T15:23:41.744Z,97251.91
2018-06-16T15:26:10.321Z,97242.84
2018-06-16T15:28:39.080Z,97245.61
2018-06-16T15:31:07.680Z,97251.47
2018-06-16T15:33:36.290Z,97244.23
2018-06-16T15:36:04.862Z,97241.78
2018-06-16T15:38:33.384Z,97242.52
2018-06-16T15:41:01.995Z,97240.59
2018-06-16T15:43:30.543Z,97241.86
2018-06-16T15:45:59.353Z,97235.44
2018-06-16T15:48:27.880Z,97220.31
2018-06-16T15:50:56.405Z,97235.62
2018-06-16T15:53:24.967Z,97227.42
2018-06-16T15:55:53.592Z,97232.77
2018-06-16T15:58:22.132Z,97236.52
2018-06-16T16:00:50.709Z,97227.84
2018-06-16T16:03:19.223Z,97238.86
2018-06-16T16:05:47.789Z,97236.22
2018-06-16T16:08:16.296Z,97234.46
2018-06-16T16:10:44.878Z,97233.59
2018-06-16T16:13:13.405Z,97226.83
2018-06-16T16:15:41.951Z,97223.58
2018-06-16T16:18:10.465Z,97234.30
2018-06-16T16:20:38.997Z,97221.58
2018-06-16T16:23:07.665Z,97222.77
2018-06-16T16:25:36.197Z,97231.64
2018-06-16T16:28:04.741Z,97239.16
2018-06-16T16:30:33.506Z,97230.11
2018-06-16T16:33:02.068Z,97233.05
2018-06-16T16:35:30.604Z,97243.92
2018-06-16T16:37:59.161Z,97232.70
2018-06-16T16:40:27.668Z,97231.48
2018-06-16T16:42:56.173Z,97235.36
2018-06-16T16:45:24.737Z,97228.51
2018-06-16T16:47:53.265Z,97243.13
2018-06-16T16:50:21.823Z,97237.62
2018-06-16T16:52:50.374Z,97232.90
2018-06-16T16:55:18.901Z,97240.16
2018-06-16T16:57:47.450Z,97228.37
2018-06-16T17:00:16.033Z,97225.90
2018-06-16T17:02:44.554Z,97240.05
2018-06-16T17:05:13.073Z,97234.59
2018-06-16T17:07:41.677Z,97237.62
2018-06-16T17:10:10.227Z,97237.52
2018-06-16T17:12:39.293Z,97233.22
2018-06-16T17:15:07.846Z,97240.86
2018-06-16T17:17:36.383Z,97241.27
2018-06-16T17:20:05.074Z,97248.90
2018-06-16T17:22:33.669Z,97244.15
2018-06-16T17:25:02.200Z,97241.60
2018-06-16T17:27:30.728Z,97238.60
2018-06-16T17:29:59.354Z,97243.25
2018-06-16T17:32:27.888Z,97244.48
2018-06-16T17:34:56.416Z,97243.92
2018-06-16T17:37:24.991Z,97246.80
2018-06-16T17:39:53.538Z,97251.05
2018-06-16T17:42:22.043Z,97250.50
2018-06-16T17:44:50.613Z,97241.73
2018-06-16T17:47:19.192Z,97245.48
2018-06-16T17:49:47.705Z,97242.44
2018-06-16T17:52:16.298Z,97245.39
2018-06-16T17:54:44.869Z,97253.02
2018-06-16T17:57:13.394Z,97245.98
2018-06-16T17:59:42.025Z,97250.20
2018-06-16T18:02:10.557Z,97248.33
2018-06-16T18:04:39.172Z,97249.36
2018-06-16T18:07:07.738Z,97246.15
2018-06-16T18:09:36.245Z,97247.61
2018-06-16T18:12:04.875Z,97243.91
2018-06-16T18:14:33.438Z,97250.11
2018-06-16T18:17:01.996Z,97253.77
2018-06-16T18:19:30.538Z,97259.19
2018-06-16T18:21:59.057Z,97257.68
2018-06-16T18:24:27.633Z,97256.70
2018-06-16T18:26:56.169Z,97259.61
2018-06-16T18:29:24.729Z,97256.05
2018-06-16T18:31:53.232Z,97262.69
2018-06-16T18:34:21.822Z,97259.19
2018-06-16T18:36:50.381Z,97258.95
2018-06-16T18:39:18.889Z,97260.97
2018-06-16T18:41:47.389Z,97260.46
2018-06-16T18:44:15.932Z,97258.57
2018-06-16T18:46:44.440Z,97256.27
2018-06-16T18:49:12.989Z,97251.02
2018-06-16T18:51:41.542Z,97253.42
2018-06-16T18:54:10.046Z,97255.41
2018-06-16T18:56:38.546Z,97255.52
2018-06-16T18:59:07.117Z,97255.69
2018-06-16T19:01:35.645Z,97249.47
2018-06-16T19:04:04.223Z,97250.56
2018-06-16T19:06:32.771Z,97252.92
2018-06-16T19:09:01.290Z,97256.96
2018-06-16T19:11:29.849Z,97256.32
2018-06-16T19:13:58.365Z,97258.31
2018-06-16T19:16:26.849Z,97258.11
2018-06-16T19:18:55.334Z,97257.98
2018-06-16T19:21:23.856Z,97263.81
2018-06-16T19:23:52.352Z,97269.23
2018-06-16T19:26:20.870Z,97261.33
2018-06-16T19:28:49.492Z,97233.73
2018-06-16T19:31:18.013Z,97230.08
2018-06-16T19:33:47.507Z,97210.52
2018-06-16T19:36:16.043Z,97233.97
2018-06-16T19:38:44.550Z,97248.31
2018-06-16T19:41:13.029Z,97248.56
2018-06-16T19:43:41.577Z,97199.81
2018-06-16T19:46:10.076Z,97159.14
2018-06-16T19:48:38.568Z,97217.63
2018-06-16T19:51:07.179Z,97233.14
2018-06-16T19:53:35.842Z,97221.91
2018-06-16T19:56:04.402Z,97240.06
2018-06-16T19:58:33.110Z,97240.80
2018-06-16T20:01:01.709Z,97239.09
2018-06-16T20:03:30.242Z,97235.08
2018-06-16T20:05:59.226Z,97205.08
2018-06-16T20:08:27.780Z,97227.05
2018-06-16T20:10:56.355Z,97236.40
2018-06-16T20:13:24.955Z,97234.59
2018-06-16T20:15:53.609Z,97215.81
2018-06-16T20:18:22.154Z,97223.61
2018-06-16T20:20:50.713Z,97187.63
2018-06-16T20:23:19.226Z,97175.19
2018-06-16T20:25:47.771Z,97207.33
2018-06-16T20:28:16.322Z,97191.89
2018-06-16T20:30:44.863Z,97189.60
2018-06-16T20:33:13.356Z,97180.48
2018-06-16T20:35:41.990Z,97161.42
2018-06-16T20:38:10.492Z,97122.38
2018-06-16T20:40:39.068Z,97148.33
2018-06-16T20:43:08.313Z,97124.77
2018-06-16T20:45:36.965Z,97102.87
2018-06-16T20:48:05.514Z,97088.22
2018-06-16T20:50:34.092Z,97048.63
2018-06-16T20:53:02.716Z,97050.86
2018-06-16T20:55:31.387Z,97044.80
2018-06-16T20:57:59.925Z,97050.60
2018-06-16T21:00:28.534Z,97032.50
2018-06-16T21:02:57.122Z,96990.17
2018-06-16T21:05:26.626Z,96927.28
2018-06-16T21:07:55.154Z,96899.16
2018-06-16T21:10:23.668Z,96896.63
2018-06-16T21:12:52.341Z,96883.27
2018-06-16T21:15:20.962Z,96909.41
2018-06-16T21:17:49.477Z,96896.50
2018-06-16T21:20:18.062Z,96885.70
2018-06-16T21:22:46.642Z,96883.88
2018-06-16T21:25:15.246Z,96808.66
2018-06-16T21:27:43.806Z,96773.17
2018-06-16T21:30:13.183Z,96732.72
2018-06-16T21:32:41.978Z,96748.20
2018-06-16T21:35:10.554Z,96751.53
2018-06-16T21:37:39.100Z,96705.56
2018-06-16T21:40:07.681Z,96698.33
2018-06-16T21:42:36.911Z,96689.39
2018-06-16T21:45:06.122Z,96682.02
2018-06-16T21:47:35.014Z,96668.80
2018-06-16T21:50:04.002Z,96628.45
2018-06-16T21:52:32.683Z,96626.70
2018-06-16T21:55:01.473Z,96638.73
2018-06-16T21:57:30.207Z,96629.98
2018-06-16T21:59:59.141Z,96636.27
2018-06-16T22:02:27.926Z,96629.83
2018-06-16T22:04:56.632Z,96593.08
2018-06-16T22:07:25.659Z,96580.44
2018-06-16T22:09:54.461Z,96583.50
2018-06-16T22:12:23.085Z,96573.41
2018-06-16T22:14:51.835Z,96562.41
2018-06-16T22:17:20.596Z,96552.31
2018-06-16T22:19:49.334Z,96567.63
2018-06-16T22:22:18.144Z,96554.85
2018-06-16T22:24:46.965Z,96566.35
2018-06-16T22:27:15.548Z,96565.67
2018-06-16T22:29:44.341Z,96556.05
2018-06-16T22:32:13.044Z,96528.38
2018-06-16T22:34:41.721Z,96513.54
2018-06-16T22:37:10.414Z,96517.37
2018-06-16T22:39:39.108Z,96505.45
2018-06-16T22:42:08.114Z,96486.63
2018-06-16T22:44:37.134Z,96483.00
2018-06-16T22:47:06.170Z,96467.94
2018-06-16T22:49:34.873Z,96453.55
2018-06-16T22:52:03.573Z,96416.88
2018-06-16T22:54:32.302Z,96416.72
2018-06-16T22:57:01.172Z,96426.27
2018-06-16T22:59:29.860Z,96427.80
2018-06-16T23:01:58.623Z,96399.27
2018-06-16T23:04:27.270Z,96385.39
2018-06-16T23:06:56.016Z,96389.48
2018-06-16T23:09:24.888Z,96382.70
2018-06-16T23:11:53.606Z,96386.55
2018-06-16T23:14:22.343Z,96389.14
2018-06-16T23:16:51.244Z,96394.16
2018-06-16T23:19:20.151Z,96397.69
2018-06-16T23:21:48.877Z,96390.33
2018-06-16T23:24:17.815Z,96376.25
2018-06-16T23:26:46.884Z,96360.03
2018-06-16T23:29:15.553Z,96354.70
2018-06-16T23:31:44.522Z,96353.48
2018-06-16T23:34:13.599Z,96350.42
2018-06-16T23:36:42.376Z,96355.44
2018-06-16T23:39:12.640Z,96355.15
2018-06-16T23:41:41.824Z,96371.16
2018-06-16T23:44:10.629Z,96363.30
2018-06-16T23:46:39.474Z,96360.16
2018-06-16T23:49:08.048Z,96360.55
2018-06-16T23:51:36.740Z,96365.33
2018-06-16T23:54:06.841Z,96371.31
2018-06-16T23:56:35.567Z,96362.51
2018-06-16T23:59:04.591Z,96367.97
